sensor_id;sensor_type;location;lat;lon;timestamp;pressure;altitude;pressure_sealevel;temperature;humidity
86115;BME280;76768;49.464;10.882;2024-02-21T21:35:14;97206.03;;;20.44;33.26
86115;BME280;76768;49.464;10.882;2024-02-21T21:41:30;97195.78;;;21.14;32.81
86115;BME280;76768;49.464;10.882;2024-02-21T21:43:55;97201.00;;;21.79;32.62
86115;BME280;76768;49.464;10.882;2024-02-21T21:46:21;97208.31;;;22.16;33.84
86115;BME280;76768;49.464;10.882;2024-02-21T21:48:46;97200.19;;;22.37;35.53
86115;BME280;76768;49.464;10.882;2024-02-21T21:51:12;97200.91;;;22.48;36.06
86115;BME280;76768;49.464;10.882;2024-02-21T21:53:39;97196.19;;;22.57;36.78
86115;BME280;76768;49.464;10.882;2024-02-21T21:56:05;97192.59;;;22.62;37.20
86115;BME280;76768;49.464;10.882;2024-02-21T21:58:31;97180.94;;;22.65;38.20
86115;BME280;76768;49.464;10.882;2024-02-21T22:00:57;97177.81;;;22.69;38.73
86115;BME280;76768;49.464;10.882;2024-02-21T22:03:22;97169.59;;;22.71;39.21
86115;BME280;76768;49.464;10.882;2024-02-21T22:05:47;97171.38;;;22.74;38.96
86115;BME280;76768;49.464;10.882;2024-02-21T22:08:13;97172.91;;;22.75;38.99
86115;BME280;76768;49.464;10.882;2024-02-21T22:10:38;97165.38;;;22.78;39.17
86115;BME280;76768;49.464;10.882;2024-02-21T22:13:04;97173.38;;;22.79;39.68
86115;BME280;76768;49.464;10.882;2024-02-21T22:15:29;97172.84;;;22.81;39.95
86115;BME280;76768;49.464;10.882;2024-02-21T22:17:55;97166.41;;;22.80;40.24
86115;BME280;76768;49.464;10.882;2024-02-21T22:20:20;97165.34;;;22.83;40.50
86115;BME280;76768;49.464;10.882;2024-02-21T22:22:48;97162.53;;;22.83;40.49
86115;BME280;76768;49.464;10.882;2024-02-21T22:25:14;97150.44;;;22.83;40.26
86115;BME280;76768;49.464;10.882;2024-02-21T22:27:39;97147.06;;;22.84;40.74
86115;BME280;76768;49.464;10.882;2024-02-21T22:30:05;97158.88;;;22.88;40.71
86115;BME280;76768;49.464;10.882;2024-02-21T22:32:30;97146.00;;;22.87;41.08
86115;BME280;76768;49.464;10.882;2024-02-21T22:34:56;97146.78;;;22.88;41.12
86115;BME280;76768;49.464;10.882;2024-02-21T22:37:22;97144.16;;;22.90;40.97
86115;BME280;76768;49.464;10.882;2024-02-21T22:39:48;97145.75;;;22.91;41.10
86115;BME280;76768;49.464;10.882;2024-02-21T22:42:13;97143.69;;;22.91;41.20
86115;BME280;76768;49.464;10.882;2024-02-21T22:44:42;97140.09;;;22.91;41.45
86115;BME280;76768;49.464;10.882;2024-02-21T22:47:08;97139.53;;;22.92;41.64
86115;BME280;76768;49.464;10.882;2024-02-21T22:49:33;97143.91;;;22.93;41.44
86115;BME280;76768;49.464;10.882;2024-02-21T22:51:58;97139.00;;;22.94;41.58
86115;BME280;76768;49.464;10.882;2024-02-21T22:54:24;97138.25;;;22.93;41.84
86115;BME280;76768;49.464;10.882;2024-02-21T22:56:50;97131.81;;;22.93;41.88
86115;BME280;76768;49.464;10.882;2024-02-21T22:59:15;97139.00;;;22.94;41.95
86115;BME280;76768;49.464;10.882;2024-02-21T23:01:40;97130.00;;;22.95;41.92
86115;BME280;76768;49.464;10.882;2024-02-21T23:04:06;97128.47;;;22.94;41.87
86115;BME280;76768;49.464;10.882;2024-02-21T23:06:31;97128.47;;;22.94;42.16
86115;BME280;76768;49.464;10.882;2024-02-21T23:08:57;97119.41;;;22.96;42.13
86115;BME280;76768;49.464;10.882;2024-02-21T23:11:23;97123.00;;;22.96;42.11
86115;BME280;76768;49.464;10.882;2024-02-21T23:13:51;97114.50;;;22.96;42.28
86115;BME280;76768;49.464;10.882;2024-02-21T23:16:17;97106.00;;;22.96;42.37
86115;BME280;76768;49.464;10.882;2024-02-21T23:18:42;97106.78;;;22.97;42.39
86115;BME280;76768;49.464;10.882;2024-02-21T23:21:10;97101.88;;;22.97;42.58
86115;BME280;76768;49.464;10.882;2024-02-21T23:23:36;97096.97;;;22.98;42.46
86115;BME280;76768;49.464;10.882;2024-02-21T23:26:02;97098.53;;;22.99;42.70
86115;BME280;76768;49.464;10.882;2024-02-21T23:28:27;97089.25;;;22.98;42.66
86115;BME280;76768;49.464;10.882;2024-02-21T23:30:52;97083.59;;;22.98;42.53
86115;BME280;76768;49.464;10.882;2024-02-21T23:33:17;97076.63;;;22.99;42.73
86115;BME280;76768;49.464;10.882;2024-02-21T23:35:43;97074.56;;;23.00;42.63
86115;BME280;76768;49.464;10.882;2024-02-21T23:38:08;97075.31;;;23.01;42.90
86115;BME280;76768;49.464;10.882;2024-02-21T23:40:34;97072.47;;;23.01;42.79
86115;BME280;76768;49.464;10.882;2024-02-21T23:42:59;97069.66;;;23.01;43.20
86115;BME280;76768;49.464;10.882;2024-02-21T23:45:26;97064.00;;;23.01;42.95
86115;BME280;76768;49.464;10.882;2024-02-21T23:47:51;97064.00;;;23.01;42.91
86115;BME280;76768;49.464;10.882;2024-02-21T23:50:16;97058.31;;;23.01;43.13
86115;BME280;76768;49.464;10.882;2024-02-21T23:52:42;97046.97;;;23.01;43.09
86115;BME280;76768;49.464;10.882;2024-02-21T23:55:07;97048.50;;;23.02;43.11
86115;BME280;76768;49.464;10.882;2024-02-21T23:57:33;97038.50;;;23.01;42.98
86115;BME280;76768;49.464;10.882;2024-02-21T23:59:59;97040.56;;;23.00;43.30
